createdAt,value
2023-03-16T00:02:11.402Z,4.38
2023-03-16T00:04:41.071Z,4.13
2023-03-16T00:07:10.659Z,3.80
2023-03-16T00:09:41.438Z,4.22
2023-03-16T00:12:15.866Z,4.70
2023-03-16T00:14:44.971Z,4.57
2023-03-16T00:17:19.249Z,4.55
2023-03-16T00:19:55.046Z,4.63
2023-03-16T00:22:24.000Z,4.60
2023-03-16T00:24:51.615Z,4.05
2023-03-16T00:27:20.351Z,3.53
2023-03-16T00:29:49.292Z,4.07
2023-03-16T00:32:21.525Z,4.18
2023-03-16T00:34:48.392Z,3.78
2023-03-16T00:37:18.065Z,3.95
2023-03-16T00:39:47.937Z,3.55
2023-03-16T00:42:16.532Z,4.28
2023-03-16T00:44:44.429Z,3.60
2023-03-16T00:47:15.715Z,3.72
2023-03-16T00:49:44.644Z,3.90
2023-03-16T00:52:16.165Z,3.72
2023-03-16T00:54:45.670Z,3.60
2023-03-16T00:57:16.018Z,3.60
2023-03-16T00:59:42.865Z,3.13
2023-03-16T01:02:10.208Z,3.80
2023-03-16T01:04:37.158Z,3.67
2023-03-16T01:07:05.106Z,3.40
2023-03-16T01:09:37.682Z,3.60
2023-03-16T01:12:15.115Z,3.25
2023-03-16T01:14:45.998Z,3.67
2023-03-16T01:17:14.104Z,3.42
2023-03-16T01:19:42.591Z,3.50
2023-03-16T01:22:13.190Z,3.50
2023-03-16T01:24:41.234Z,3.88
2023-03-16T01:27:10.247Z,3.42
2023-03-16T01:29:37.979Z,3.70
2023-03-16T01:32:05.140Z,2.88
2023-03-16T01:34:32.396Z,3.13
2023-03-16T01:37:00.289Z,3.70
2023-03-16T01:39:28.484Z,3.55
2023-03-16T01:41:55.671Z,3.35
2023-03-16T01:44:34.990Z,3.17
2023-03-16T01:47:01.782Z,3.55
2023-03-16T01:49:30.134Z,3.35
2023-03-16T01:52:20.340Z,3.20
2023-03-16T01:54:52.102Z,2.78
2023-03-16T01:57:25.634Z,3.03
2023-03-16T01:59:56.826Z,2.53
2023-03-16T02:02:27.681Z,3.60
2023-03-16T02:04:57.409Z,2.67
2023-03-16T02:07:27.612Z,3.60
2023-03-16T02:09:59.674Z,3.28
2023-03-16T02:12:27.105Z,3.22
2023-03-16T02:14:54.392Z,2.95
2023-03-16T02:17:26.146Z,3.47
2023-03-16T02:19:58.270Z,3.08
2023-03-16T02:22:26.126Z,3.55
2023-03-16T02:24:53.922Z,2.95
2023-03-16T02:27:31.365Z,3.35
2023-03-16T02:30:07.186Z,3.33
2023-03-16T02:32:36.455Z,3.38
2023-03-16T02:35:03.878Z,3.10
2023-03-16T02:37:34.684Z,3.58
2023-03-16T02:40:09.792Z,3.72
2023-03-16T02:42:36.571Z,3.10
2023-03-16T02:45:03.558Z,3.35
2023-03-16T02:47:41.723Z,3.22
2023-03-16T02:50:09.740Z,3.70
2023-03-16T02:52:39.948Z,3.45
2023-03-16T02:55:08.077Z,3.72
2023-03-16T02:57:36.818Z,3.47
2023-03-16T03:00:11.597Z,3.20
2023-03-16T03:02:38.318Z,3.20
2023-03-16T03:05:07.849Z,3.55
2023-03-16T03:07:34.652Z,3.20
2023-03-16T03:10:03.462Z,3.45
2023-03-16T03:12:30.169Z,3.72
2023-03-16T03:14:57.296Z,3.55
2023-03-16T03:17:30.096Z,3.65
2023-03-16T03:20:02.622Z,3.80
2023-03-16T03:22:30.784Z,3.42
2023-03-16T03:24:58.483Z,3.90
2023-03-16T03:27:25.278Z,3.35
2023-03-16T03:29:55.038Z,3.90
2023-03-16T03:32:21.977Z,4.32
2023-03-16T03:34:48.895Z,3.85
2023-03-16T03:37:15.627Z,3.90
2023-03-16T03:39:42.766Z,4.13
2023-03-16T03:42:11.678Z,4.57
2023-03-16T03:44:39.509Z,4.07
2023-03-16T03:47:06.405Z,3.83
2023-03-16T03:49:35.541Z,4.13
2023-03-16T03:52:05.093Z,4.30
2023-03-16T03:54:31.956Z,4.15
2023-03-16T03:57:00.998Z,4.40
2023-03-16T03:59:27.724Z,4.35
2023-03-16T04:01:54.528Z,4.00
2023-03-16T04:04:21.644Z,3.78
2023-03-16T04:06:48.524Z,4.55
2023-03-16T04:09:15.555Z,4.78
2023-03-16T04:11:43.378Z,3.85
2023-03-16T04:14:10.122Z,4.40
2023-03-16T04:16:39.438Z,4.55
2023-03-16T04:19:06.898Z,5.10
2023-03-16T04:21:34.169Z,4.40
2023-03-16T04:24:04.550Z,4.82
2023-03-16T04:26:32.522Z,4.95
2023-03-16T04:28:59.963Z,5.03
2023-03-16T04:31:28.002Z,4.95
2023-03-16T04:33:56.269Z,4.55
2023-03-16T04:36:25.978Z,4.80
2023-03-16T04:38:52.747Z,5.38
2023-03-16T04:41:19.965Z,4.97
2023-03-16T04:43:47.915Z,5.07
2023-03-16T04:46:14.775Z,5.40
2023-03-16T04:48:42.953Z,5.70
2023-03-16T04:51:09.760Z,5.75
2023-03-16T04:53:36.778Z,5.25
2023-03-16T04:56:05.104Z,5.60
2023-03-16T04:58:33.247Z,5.00
2023-03-16T05:01:02.953Z,5.32
2023-03-16T05:03:32.078Z,5.30
2023-03-16T05:05:58.894Z,5.13
2023-03-16T05:08:25.662Z,5.90
2023-03-16T05:10:57.040Z,5.35
2023-03-16T05:13:23.876Z,5.60
2023-03-16T05:15:53.803Z,5.40
2023-03-16T05:18:21.634Z,5.53
2023-03-16T05:20:56.198Z,6.20
2023-03-16T05:23:23.925Z,6.28
2023-03-16T05:25:51.058Z,5.97
2023-03-16T05:28:19.608Z,5.60
2023-03-16T05:30:46.419Z,6.30
2023-03-16T05:33:18.600Z,6.53
2023-03-16T05:35:48.342Z,6.25
2023-03-16T05:38:15.842Z,5.68
2023-03-16T05:40:42.613Z,6.25
2023-03-16T05:43:10.602Z,5.93
2023-03-16T05:45:37.425Z,5.97
2023-03-16T05:48:05.894Z,6.63
2023-03-16T05:50:34.876Z,6.88
2023-03-16T05:53:02.194Z,5.95
2023-03-16T05:55:29.439Z,5.97
2023-03-16T05:57:59.360Z,6.50
2023-03-16T06:00:26.446Z,6.35
2023-03-16T06:02:53.830Z,5.70
2023-03-16T06:05:22.018Z,6.13
2023-03-16T06:07:53.174Z,5.88
2023-03-16T06:10:20.871Z,5.95
2023-03-16T06:12:48.683Z,6.18
2023-03-16T06:15:15.457Z,6.60
2023-03-16T06:17:43.488Z,6.68
2023-03-16T06:20:13.160Z,6.22
2023-03-16T06:22:42.107Z,6.68
2023-03-16T06:25:11.048Z,6.70
2023-03-16T06:27:39.142Z,6.43
2023-03-16T06:30:12.304Z,6.57
2023-03-16T06:32:45.833Z,6.33
2023-03-16T06:35:13.470Z,6.88
2023-03-16T06:37:41.506Z,7.82
2023-03-16T06:40:09.000Z,6.97
2023-03-16T06:42:36.946Z,5.95
2023-03-16T06:45:04.091Z,7.15
2023-03-16T06:47:31.748Z,6.68
2023-03-16T06:49:58.502Z,7.32
2023-03-16T06:52:25.266Z,7.60
2023-03-16T06:54:51.994Z,7.20
2023-03-16T06:57:19.133Z,7.30
2023-03-16T06:59:45.872Z,6.70
2023-03-16T07:02:13.954Z,7.18
2023-03-16T07:04:42.000Z,7.15
2023-03-16T07:07:09.374Z,7.20
2023-03-16T07:09:39.165Z,6.72
2023-03-16T07:12:07.406Z,7.18
2023-03-16T07:15:41.707Z,6.78
2023-03-16T07:18:08.546Z,7.25
2023-03-16T07:20:35.367Z,7.10
2023-03-16T07:23:02.116Z,6.35
2023-03-16T07:25:28.946Z,6.97
2023-03-16T07:27:55.774Z,7.38
2023-03-16T07:30:22.633Z,7.57
2023-03-16T07:32:49.950Z,8.07
2023-03-16T07:35:17.397Z,7.15
2023-03-16T07:37:44.246Z,7.45
2023-03-16T07:40:11.849Z,7.35
2023-03-16T07:42:38.648Z,7.32
2023-03-16T07:45:06.820Z,6.55
2023-03-16T07:47:34.162Z,7.43
2023-03-16T07:50:01.440Z,7.03
2023-03-16T07:52:28.524Z,7.18
2023-03-16T07:54:55.595Z,7.55
2023-03-16T07:57:22.541Z,6.93
2023-03-16T07:59:49.772Z,7.25
2023-03-16T08:02:19.092Z,6.97
2023-03-16T08:04:46.425Z,7.60
2023-03-16T08:07:14.438Z,7.07
2023-03-16T08:09:41.634Z,7.47
2023-03-16T08:12:09.242Z,6.95
2023-03-16T08:14:36.849Z,6.88
2023-03-16T08:17:06.103Z,6.80
2023-03-16T08:19:33.958Z,6.53
2023-03-16T08:22:03.781Z,7.05
2023-03-16T08:24:31.181Z,6.72
2023-03-16T08:26:58.882Z,6.53
2023-03-16T08:29:26.643Z,6.50
2023-03-16T08:31:57.665Z,5.78
2023-03-16T08:34:25.389Z,5.95
2023-03-16T08:36:52.484Z,5.38
2023-03-16T08:39:19.414Z,5.93
2023-03-16T08:41:47.119Z,6.32
2023-03-16T08:44:14.018Z,5.63
2023-03-16T08:46:41.144Z,5.78
2023-03-16T08:49:08.087Z,6.07
2023-03-16T08:51:35.049Z,5.20
2023-03-16T08:54:01.833Z,6.00
2023-03-16T08:56:30.720Z,5.70
2023-03-16T08:58:57.682Z,5.53
2023-03-16T09:01:25.926Z,5.85
2023-03-16T09:03:53.010Z,6.32
2023-03-16T09:06:20.099Z,5.88
2023-03-16T09:08:47.812Z,5.82
2023-03-16T09:11:18.850Z,5.80
2023-03-16T09:13:47.507Z,7.25
2023-03-16T09:16:15.951Z,6.28
2023-03-16T09:18:43.800Z,7.15
2023-03-16T09:21:13.907Z,6.55
2023-03-16T09:23:42.972Z,6.63
2023-03-16T09:26:12.604Z,6.63
2023-03-16T09:28:42.195Z,7.28
2023-03-16T09:31:15.383Z,6.20
2023-03-16T09:33:42.889Z,6.57
2023-03-16T09:36:11.634Z,5.72
2023-03-16T09:38:38.603Z,6.55
2023-03-16T09:41:40.165Z,6.18
2023-03-16T09:44:38.018Z,5.80
2023-03-16T09:47:06.260Z,5.15
2023-03-16T09:49:37.783Z,5.90
2023-03-16T09:52:30.361Z,5.45
2023-03-16T09:55:10.770Z,6.25
2023-03-16T09:57:43.705Z,6.68
2023-03-16T10:00:25.948Z,5.78
2023-03-16T10:03:11.129Z,6.55
2023-03-16T10:05:39.688Z,6.18
2023-03-16T10:08:12.855Z,6.35
2023-03-16T10:10:51.763Z,5.20
2023-03-16T10:13:51.210Z,6.05
2023-03-16T10:16:32.950Z,6.50
2023-03-16T10:19:24.582Z,6.07
2023-03-16T10:21:54.527Z,6.50
2023-03-16T10:24:38.620Z,6.95
2023-03-16T10:27:31.099Z,5.43
2023-03-16T10:29:58.286Z,5.05
2023-03-16T10:32:29.593Z,5.35
2023-03-16T10:35:11.393Z,6.22
2023-03-16T10:37:38.936Z,5.70
2023-03-16T10:40:12.376Z,5.25
2023-03-16T10:42:40.533Z,5.25
2023-03-16T10:45:30.577Z,5.70
2023-03-16T10:48:14.609Z,6.10
2023-03-16T10:50:50.236Z,5.70
2023-03-16T10:53:28.781Z,5.15
2023-03-16T10:56:00.206Z,5.20
2023-03-16T10:58:30.899Z,5.32
2023-03-16T11:00:58.552Z,4.60
2023-03-16T11:03:31.778Z,5.20
2023-03-16T11:06:04.198Z,4.87
2023-03-16T11:08:34.487Z,5.05
2023-03-16T11:11:18.638Z,5.25
2023-03-16T11:13:47.998Z,4.50
2023-03-16T11:16:28.204Z,4.55
2023-03-16T11:19:05.294Z,4.10
2023-03-16T11:22:17.551Z,4.28
2023-03-16T11:25:09.393Z,4.60
2023-03-16T11:28:09.239Z,4.88
2023-03-16T11:31:04.877Z,4.10
2023-03-16T11:33:32.193Z,4.25
2023-03-16T11:36:21.483Z,4.60
2023-03-16T11:39:04.764Z,4.50
2023-03-16T11:42:19.031Z,4.22
2023-03-16T11:45:34.012Z,4.70
2023-03-16T11:48:02.530Z,4.00
2023-03-16T11:50:58.988Z,4.32
2023-03-16T11:54:03.244Z,4.90
2023-03-16T11:56:36.137Z,4.33
2023-03-16T11:59:27.619Z,4.00
2023-03-16T12:02:10.065Z,3.42
2023-03-16T12:05:14.964Z,3.42
2023-03-16T12:08:11.126Z,3.70
2023-03-16T12:10:52.222Z,3.00
2023-03-16T12:13:46.022Z,3.25
2023-03-16T12:16:24.073Z,3.33
2023-03-16T12:18:59.388Z,3.80
2023-03-16T12:21:33.543Z,3.05
2023-03-16T12:24:04.399Z,2.40
2023-03-16T12:26:41.596Z,2.50
2023-03-16T12:29:14.700Z,2.22
2023-03-16T12:32:02.441Z,1.95
2023-03-16T12:34:38.864Z,1.45
2023-03-16T12:37:17.130Z,1.80
2023-03-16T12:40:20.470Z,1.60
2023-03-16T12:43:10.096Z,1.50
2023-03-16T12:45:42.086Z,1.48
2023-03-16T12:48:19.525Z,1.77
2023-03-16T12:50:59.779Z,2.00
2023-03-16T12:53:46.809Z,1.48
2023-03-16T12:56:43.557Z,1.45
2023-03-16T12:59:25.791Z,1.40
2023-03-16T13:02:04.303Z,1.58
2023-03-16T13:04:34.002Z,1.23
2023-03-16T13:07:05.915Z,1.40
2023-03-16T13:09:42.230Z,2.00
2023-03-16T13:12:10.532Z,1.50
2023-03-16T13:14:43.396Z,1.58
2023-03-16T13:17:16.139Z,1.60
2023-03-16T13:19:58.731Z,1.17
2023-03-16T13:22:46.781Z,1.55
2023-03-16T13:25:41.223Z,1.45
2023-03-16T13:28:15.072Z,2.03
2023-03-16T13:30:48.824Z,1.40
2023-03-16T13:33:25.832Z,1.40
2023-03-16T13:35:54.458Z,1.60
2023-03-16T13:38:28.677Z,1.50
2023-03-16T13:40:58.287Z,1.50
2023-03-16T13:43:35.747Z,1.60
2023-03-16T13:46:13.380Z,1.55
2023-03-16T13:48:44.395Z,1.60
2023-03-16T13:51:18.695Z,2.00
2023-03-16T13:56:34.795Z,1.60
2023-03-16T13:59:01.663Z,2.10
2023-03-16T14:01:34.198Z,1.65
2023-03-16T14:04:14.640Z,1.77
2023-03-16T14:06:51.237Z,1.60
2023-03-16T14:09:21.906Z,2.28
2023-03-16T14:11:52.266Z,1.60
2023-03-16T14:14:32.220Z,1.92
2023-03-16T14:17:23.160Z,1.77
2023-03-16T14:19:58.874Z,1.80
2023-03-16T14:22:33.960Z,2.13
2023-03-16T14:25:04.775Z,1.83
2023-03-16T14:27:45.706Z,1.70
2023-03-16T14:30:19.019Z,1.83
2023-03-16T14:32:59.227Z,2.55
2023-03-16T14:35:47.716Z,2.22
2023-03-16T14:38:38.091Z,2.55
2023-03-16T14:41:17.839Z,2.00
2023-03-16T14:43:59.724Z,2.10
2023-03-16T14:46:40.934Z,2.10
2023-03-16T14:49:26.837Z,1.90
2023-03-16T14:52:26.696Z,2.00
2023-03-16T14:54:58.763Z,2.05
2023-03-16T14:57:27.292Z,2.15
2023-03-16T15:00:00.089Z,2.15
2023-03-16T15:02:32.631Z,2.30
2023-03-16T15:05:02.229Z,2.17
2023-03-16T15:07:32.601Z,2.22
2023-03-16T15:10:22.388Z,2.60
2023-03-16T15:13:04.460Z,2.47
2023-03-16T15:15:32.688Z,2.85
2023-03-16T15:18:00.231Z,2.40
2023-03-16T15:20:35.314Z,2.38
2023-03-16T15:23:03.309Z,2.50
2023-03-16T15:25:39.719Z,2.92
2023-03-16T15:28:21.357Z,2.60
2023-03-16T15:30:51.795Z,2.42
2023-03-16T15:33:25.251Z,2.92
2023-03-16T15:36:01.108Z,2.70
2023-03-16T15:38:32.178Z,2.78
2023-03-16T15:40:59.441Z,2.92
2023-03-16T15:43:30.831Z,2.75
2023-03-16T15:46:01.369Z,2.90
2023-03-16T15:48:28.796Z,3.22
2023-03-16T15:51:24.171Z,2.53
2023-03-16T15:53:56.625Z,2.45
2023-03-16T15:56:30.038Z,2.80
2023-03-16T15:59:00.749Z,2.50
2023-03-16T16:01:32.134Z,2.47
2023-03-16T16:03:59.284Z,3.00
2023-03-16T16:06:31.556Z,2.35
2023-03-16T16:08:58.312Z,2.60
2023-03-16T16:11:29.663Z,2.60
2023-03-16T16:13:58.119Z,2.40
2023-03-16T16:16:30.498Z,2.58
2023-03-16T16:18:58.218Z,3.10
2023-03-16T16:21:30.326Z,3.10
2023-03-16T16:23:59.183Z,2.55
2023-03-16T16:26:54.755Z,2.65
2023-03-16T16:29:26.706Z,2.38
2023-03-16T16:39:01.200Z,4.80
2023-03-16T16:41:38.859Z,2.90
2023-03-16T16:44:13.697Z,3.50
2023-03-16T16:46:43.963Z,2.95
2023-03-16T16:49:28.507Z,2.75
2023-03-16T16:52:06.921Z,3.70
2023-03-16T16:54:35.408Z,2.97
2023-03-16T16:57:04.951Z,3.55
2023-03-16T16:59:39.146Z,3.25
2023-03-16T17:05:18.354Z,3.35
2023-03-16T17:07:45.271Z,3.72
2023-03-16T17:10:26.151Z,3.58
2023-03-16T17:12:56.130Z,3.33
2023-03-16T17:15:25.189Z,3.78
2023-03-16T17:17:56.462Z,4.25
2023-03-16T17:20:25.945Z,3.55
2023-03-16T17:22:55.836Z,4.22
2023-03-16T17:25:23.613Z,4.25
2023-03-16T17:27:52.661Z,4.32
2023-03-16T17:30:22.568Z,4.35
2023-03-16T17:32:56.809Z,5.72
2023-03-16T17:35:25.039Z,4.15
2023-03-16T17:37:51.883Z,4.20
2023-03-16T17:40:26.544Z,4.22
2023-03-16T17:42:57.693Z,12.10
2023-03-16T17:45:30.351Z,4.60
2023-03-16T17:47:59.046Z,4.38
2023-03-16T17:50:34.284Z,8.93
2023-03-16T17:53:05.427Z,4.95
2023-03-16T17:55:33.784Z,4.80
2023-03-16T17:58:00.824Z,4.57
2023-03-16T18:00:32.413Z,9.63
2023-03-16T18:03:03.488Z,4.35
2023-03-16T18:05:32.840Z,4.63
2023-03-16T18:08:25.040Z,4.45
2023-03-16T18:11:05.148Z,4.35
2023-03-16T18:13:36.704Z,4.50
2023-03-16T18:16:05.777Z,4.35
2023-03-16T18:18:42.884Z,11.77
2023-03-16T18:21:18.688Z,4.57
2023-03-16T18:23:46.337Z,4.40
2023-03-16T18:26:34.879Z,4.90
2023-03-16T18:29:11.138Z,4.38
2023-03-16T18:31:38.259Z,4.28
2023-03-16T18:34:09.243Z,6.60
2023-03-16T18:36:41.485Z,3.85
2023-03-16T18:50:30.343Z,4.18
2023-03-16T18:52:58.315Z,4.28
2023-03-16T18:55:26.053Z,4.28
2023-03-16T18:57:56.603Z,4.10
2023-03-16T19:00:30.081Z,3.85
2023-03-16T19:03:01.427Z,4.05
2023-03-16T19:05:36.884Z,3.95
2023-03-16T19:08:09.621Z,4.10
2023-03-16T19:10:42.039Z,3.90
2023-03-16T19:13:23.768Z,3.50
2023-03-16T19:15:52.301Z,4.03
2023-03-16T19:18:19.699Z,3.35
2023-03-16T19:20:50.216Z,3.40
2023-03-16T19:23:27.043Z,4.07
2023-03-16T19:25:54.737Z,3.45
2023-03-16T19:28:34.363Z,3.97
2023-03-16T19:31:03.346Z,4.82
2023-03-16T19:33:30.087Z,4.30
2023-03-16T19:35:59.460Z,3.65
2023-03-16T19:38:26.486Z,3.72
2023-03-16T19:41:00.572Z,4.50
2023-03-16T19:45:56.805Z,4.50
2023-03-16T19:48:33.137Z,4.38
2023-03-16T19:53:42.814Z,3.72
2023-03-16T19:56:22.848Z,3.72
2023-03-16T19:58:53.547Z,3.40
2023-03-16T20:01:32.413Z,3.42
2023-03-16T20:04:00.050Z,3.63
2023-03-16T20:06:30.137Z,3.42
2023-03-16T20:08:58.447Z,3.47
2023-03-16T20:11:29.190Z,3.60
2023-03-16T20:13:58.939Z,3.22
2023-03-16T20:16:32.460Z,3.35
2023-03-16T20:19:10.989Z,3.72
2023-03-16T20:21:37.725Z,3.70
2023-03-16T20:24:14.073Z,2.83
2023-03-16T20:26:42.169Z,3.25
2023-03-16T20:29:33.508Z,3.45
2023-03-16T20:32:01.793Z,3.10
2023-03-16T20:34:33.302Z,3.60
2023-03-16T20:37:01.938Z,3.88
2023-03-16T20:39:32.606Z,3.40
2023-03-16T20:41:59.392Z,3.10
2023-03-16T20:44:31.517Z,3.35
2023-03-16T20:46:58.625Z,3.55
2023-03-16T20:49:34.818Z,3.88
2023-03-16T20:52:07.880Z,3.50
2023-03-16T20:54:41.729Z,3.15
2023-03-16T20:57:22.434Z,4.68
2023-03-16T20:59:51.696Z,3.20
2023-03-16T21:02:32.087Z,3.67
2023-03-16T21:05:03.842Z,3.80
2023-03-16T21:07:31.246Z,3.70
2023-03-16T21:09:58.750Z,3.25
2023-03-16T21:12:33.784Z,3.45
2023-03-16T21:15:04.721Z,2.85
2023-03-16T21:17:34.510Z,3.50
2023-03-16T21:20:01.737Z,3.22
2023-03-16T21:22:35.004Z,3.40
2023-03-16T21:25:02.894Z,3.17
2023-03-16T21:27:34.284Z,3.10
2023-03-16T21:30:08.491Z,3.40
2023-03-16T21:32:35.320Z,3.92
2023-03-16T21:35:02.125Z,3.38
2023-03-16T21:37:30.426Z,4.03
2023-03-16T21:39:58.660Z,4.10
2023-03-16T21:42:27.905Z,3.22
2023-03-16T21:44:54.679Z,3.63
2023-03-16T21:47:28.314Z,3.45
2023-03-16T21:49:56.033Z,4.28
2023-03-16T21:52:28.547Z,3.92
2023-03-16T21:54:56.891Z,3.75
2023-03-16T21:57:24.090Z,4.43
2023-03-16T21:59:51.167Z,4.45
2023-03-16T22:02:26.344Z,3.67
2023-03-16T22:04:55.696Z,3.58
2023-03-16T22:07:25.926Z,3.95
2023-03-16T22:09:52.707Z,4.28
2023-03-16T22:12:19.496Z,4.25
2023-03-16T22:14:49.648Z,4.00
2023-03-16T22:17:24.784Z,4.38
2023-03-16T22:19:51.929Z,3.97
2023-03-16T22:22:18.760Z,4.40
2023-03-16T22:24:46.127Z,4.00
2023-03-16T22:27:26.121Z,4.20
2023-03-16T22:29:53.199Z,4.30
2023-03-16T22:32:21.891Z,4.00
2023-03-16T22:34:52.332Z,3.90
2023-03-16T22:37:23.160Z,4.07
2023-03-16T22:39:50.387Z,4.07
2023-03-16T22:42:25.218Z,3.92
2023-03-16T22:44:52.046Z,4.38
2023-03-16T22:47:22.285Z,3.90
2023-03-16T22:49:49.011Z,4.65
2023-03-16T22:52:16.193Z,4.25
2023-03-16T22:54:43.638Z,3.90
2023-03-16T22:57:15.010Z,4.45
2023-03-16T22:59:42.196Z,3.90
2023-03-16T23:02:14.901Z,4.40
2023-03-16T23:04:42.245Z,3.60
2023-03-16T23:07:13.254Z,4.03
2023-03-16T23:09:40.898Z,4.15
2023-03-16T23:12:17.511Z,3.92
2023-03-16T23:14:44.297Z,4.10
2023-03-16T23:17:20.854Z,3.97
2023-03-16T23:19:48.293Z,4.40
2023-03-16T23:22:15.613Z,4.15
2023-03-16T23:24:42.548Z,4.57
2023-03-16T23:27:22.354Z,4.47
2023-03-16T23:29:49.334Z,3.70
2023-03-16T23:32:19.413Z,3.83
2023-03-16T23:34:46.437Z,4.32
2023-03-16T23:37:13.261Z,4.18
2023-03-16T23:39:40.123Z,3.97
2023-03-16T23:42:07.247Z,4.30
2023-03-16T23:44:34.690Z,3.72
2023-03-16T23:47:01.539Z,3.90
2023-03-16T23:49:33.026Z,3.88
2023-03-16T23:52:01.906Z,3.58
2023-03-16T23:54:30.928Z,4.10
2023-03-16T23:56:57.831Z,3.80
2023-03-16T23:59:26.675Z,4.05
